Time;durP1;ratioP1;P1;durP2;ratioP2;P2;SDS_P1;SDS_P2;PMS_P1;PMS_P2;Temp;Humidity;BMP_temperature;BMP_pressure;BME280_temperature;BME280_humidity;BME280_pressure;Samples;Min_cycle;Max_cycle;Signal;HPM_P1;HPM_P2
2021/08/16 00:00:26;;;;;;;6.55;4.50;;;25.50;74.00;;;;;;5002206;28;20022;-49
2021/08/16 00:02:51;;;;;;;8.13;4.45;;;25.50;73.90;;;;;;5001385;28;20034;-53
2021/08/16 00:05:17;;;;;;;8.73;5.22;;;25.50;73.80;;;;;;5004598;28;20026;-50
2021/08/16 00:07:43;;;;;;;7.00;4.95;;;25.50;73.80;;;;;;5000703;28;20030;-57
2021/08/16 00:10:10;;;;;;;5.63;4.50;;;25.50;73.60;;;;;;5001947;28;20034;-49
2021/08/16 00:12:36;;;;;;;5.82;4.43;;;25.50;73.60;;;;;;5008067;28;20348;-49
2021/08/16 00:15:02;;;;;;;8.60;4.88;;;25.50;73.60;;;;;;5007099;28;20078;-50
2021/08/16 00:17:28;;;;;;;7.25;4.93;;;25.50;73.50;;;;;;5004339;28;20034;-50
2021/08/16 00:19:53;;;;;;;8.05;4.93;;;25.50;73.50;;;;;;5001767;28;20072;-50
2021/08/16 00:22:19;;;;;;;5.53;4.88;;;25.50;73.40;;;;;;5000741;28;20060;-53
2021/08/16 00:24:45;;;;;;;7.63;4.95;;;25.50;73.50;;;;;;5001646;28;20034;-54
2021/08/16 00:27:11;;;;;;;8.65;5.45;;;25.50;73.40;;;;;;5001228;28;20054;-52
2021/08/16 00:29:36;;;;;;;6.60;4.72;;;25.50;73.40;;;;;;5003052;28;20042;-48
2021/08/16 00:32:02;;;;;;;4.95;4.25;;;25.50;73.50;;;;;;5000823;28;20175;-51
2021/08/16 00:34:28;;;;;;;6.50;4.25;;;25.50;73.50;;;;;;5002792;28;20117;-48
2021/08/16 00:36:53;;;;;;;6.75;4.63;;;25.50;73.40;;;;;;5001083;28;20037;-52
2021/08/16 00:39:19;;;;;;;6.75;4.65;;;25.50;73.40;;;;;;5002075;28;20097;-49
2021/08/16 00:41:48;;;;;;;5.28;4.53;;;25.50;73.50;;;;;;4999972;28;20050;-52
2021/08/16 00:44:15;;;;;;;6.70;5.05;;;25.50;73.30;;;;;;5002448;28;20034;-50
2021/08/16 00:46:41;;;;;;;5.65;4.72;;;25.50;73.30;;;;;;5001557;28;20144;-56
2021/08/16 00:49:07;;;;;;;6.75;5.78;;;25.50;73.20;;;;;;5000237;28;20098;-49
2021/08/16 00:51:35;;;;;;;9.68;5.05;;;25.50;73.20;;;;;;5001360;28;20522;-53
2021/08/16 00:54:02;;;;;;;5.57;4.57;;;25.50;73.40;;;;;;5000713;28;20470;-50
2021/08/16 00:56:28;;;;;;;5.45;4.45;;;25.50;73.20;;;;;;5002310;28;20065;-51
2021/08/16 00:59:00;;;;;;;8.88;5.22;;;25.50;73.10;;;;;;5000070;28;20145;-55
2021/08/16 01:01:26;;;;;;;9.13;4.90;;;25.50;73.20;;;;;;5000527;28;20041;-49
2021/08/16 01:03:52;;;;;;;7.10;4.80;;;25.50;73.10;;;;;;4999342;28;20395;-49
2021/08/16 01:06:19;;;;;;;7.70;4.82;;;25.50;73.10;;;;;;5001015;28;20027;-52
2021/08/16 01:08:51;;;;;;;6.78;5.10;;;25.50;72.90;;;;;;5000013;28;20060;-53
2021/08/16 01:11:18;;;;;;;6.65;4.80;;;25.50;73.00;;;;;;5002301;28;20034;-50
2021/08/16 01:13:46;;;;;;;7.47;4.88;;;25.50;73.00;;;;;;5000427;28;20058;-50
2021/08/16 01:16:13;;;;;;;5.65;4.47;;;25.50;73.00;;;;;;4998795;28;20105;-49
2021/08/16 01:18:38;;;;;;;9.00;4.95;;;25.50;73.20;;;;;;5000657;28;20037;-54
2021/08/16 01:21:06;;;;;;;8.20;4.82;;;25.40;72.80;;;;;;4999152;28;20041;-53
2021/08/16 01:23:33;;;;;;;7.97;5.07;;;25.50;73.00;;;;;;5001913;28;20061;-50
2021/08/16 01:25:59;;;;;;;6.00;4.43;;;25.40;72.80;;;;;;4999702;28;20034;-49
2021/08/16 01:28:25;;;;;;;6.18;5.50;;;25.40;72.90;;;;;;5001784;28;20049;-53
2021/08/16 01:30:57;;;;;;;8.80;5.40;;;25.50;72.90;;;;;;4999260;28;20030;-53
2021/08/16 01:33:24;;;;;;;6.15;4.93;;;25.40;73.00;;;;;;5002003;28;20018;-51
2021/08/16 01:35:50;;;;;;;5.88;4.47;;;25.40;72.80;;;;;;4998797;28;20030;-52
2021/08/16 01:38:25;;;;;;;8.05;5.10;;;25.40;72.70;;;;;;5001339;28;20037;-51
2021/08/16 01:40:51;;;;;;;6.50;4.93;;;25.40;72.80;;;;;;4999671;28;20403;-49
2021/08/16 01:43:16;;;;;;;7.05;5.13;;;25.40;72.60;;;;;;5001690;28;20026;-49
2021/08/16 01:45:42;;;;;;;8.07;5.00;;;25.50;72.90;;;;;;5000474;28;20034;-56
2021/08/16 01:48:07;;;;;;;8.38;5.50;;;25.40;72.70;;;;;;5000417;28;20034;-52
2021/08/16 01:50:34;;;;;;;6.95;4.82;;;25.30;72.40;;;;;;4999532;28;20026;-50
2021/08/16 01:52:59;;;;;;;7.53;4.72;;;25.30;72.60;;;;;;5000887;28;20049;-51
2021/08/16 01:55:25;;;;;;;7.68;5.78;;;25.30;72.40;;;;;;5001539;28;20070;-54
2021/08/16 01:57:51;;;;;;;7.07;5.45;;;25.30;72.50;;;;;;4998710;28;20042;-50
2021/08/16 02:00:17;;;;;;;7.53;5.22;;;25.30;72.40;;;;;;5001599;28;20030;-48
2021/08/16 02:02:42;;;;;;;7.70;5.18;;;25.30;72.40;;;;;;5000095;28;20027;-57
2021/08/16 02:05:08;;;;;;;6.50;5.35;;;25.30;72.40;;;;;;4998752;28;20040;-51
2021/08/16 02:07:34;;;;;;;8.10;5.47;;;25.40;72.50;;;;;;5001304;28;20038;-52
2021/08/16 02:10:00;;;;;;;7.70;4.57;;;25.40;72.40;;;;;;4999838;28;20033;-51
2021/08/16 02:12:25;;;;;;;7.00;4.90;;;25.40;72.40;;;;;;5001332;28;20037;-53
2021/08/16 02:14:51;;;;;;;6.88;4.88;;;25.40;72.40;;;;;;4998697;28;20484;-49
2021/08/16 02:17:17;;;;;;;7.55;5.22;;;25.40;72.40;;;;;;5000479;28;20057;-52
2021/08/16 02:19:44;;;;;;;7.25;5.53;;;25.40;72.40;;;;;;4998588;28;20034;-57
2021/08/16 02:22:09;;;;;;;9.88;5.13;;;25.40;72.40;;;;;;4998958;28;20118;-50
2021/08/16 02:24:35;;;;;;;7.28;5.07;;;25.40;72.30;;;;;;5001726;28;20492;-55
2021/08/16 02:27:01;;;;;;;8.35;5.97;;;25.50;72.40;;;;;;4999324;28;20053;-50
2021/08/16 02:29:26;;;;;;;11.02;5.40;;;25.40;72.20;;;;;;4999186;28;20084;-50
2021/08/16 02:31:52;;;;;;;6.30;5.20;;;25.40;72.30;;;;;;4999558;28;20379;-50
2021/08/16 02:34:17;;;;;;;8.88;5.15;;;25.40;72.30;;;;;;4997492;28;20024;-50
2021/08/16 02:36:43;;;;;;;5.32;4.70;;;25.40;72.40;;;;;;4999285;28;20029;-52
2021/08/16 02:39:10;;;;;;;8.40;5.35;;;25.40;72.30;;;;;;5000564;28;20030;-50
2021/08/16 02:41:36;;;;;;;7.30;5.43;;;25.40;72.20;;;;;;4999019;28;20109;-54
2021/08/16 02:44:02;;;;;;;8.02;5.25;;;25.40;72.30;;;;;;4999047;28;20022;-50
2021/08/16 02:46:28;;;;;;;7.25;5.68;;;25.40;72.20;;;;;;5000626;28;20042;-52
2021/08/16 02:48:54;;;;;;;5.65;4.63;;;25.40;72.10;;;;;;4997832;28;20093;-49
2021/08/16 02:51:20;;;;;;;8.98;5.60;;;25.30;72.00;;;;;;4999883;28;20083;-54
2021/08/16 02:53:46;;;;;;;5.75;4.72;;;25.30;72.00;;;;;;5001150;28;20026;-48
2021/08/16 02:56:12;;;;;;;7.45;5.30;;;25.30;71.80;;;;;;4999688;28;20031;-52
2021/08/16 02:58:37;;;;;;;7.93;5.40;;;25.30;71.70;;;;;;5000016;28;20038;-54
2021/08/16 03:01:03;;;;;;;6.85;5.20;;;25.30;71.80;;;;;;4999120;28;20030;-50
2021/08/16 03:03:28;;;;;;;7.50;5.00;;;25.30;71.80;;;;;;4998084;28;20026;-50
2021/08/16 03:05:54;;;;;;;8.43;5.85;;;25.30;71.60;;;;;;4999926;28;20030;-53
2021/08/16 03:08:20;;;;;;;8.35;5.13;;;25.30;71.70;;;;;;5000097;28;20388;-54
2021/08/16 03:10:45;;;;;;;6.68;5.15;;;25.30;71.50;;;;;;4998363;28;20034;-53
2021/08/16 03:13:11;;;;;;;5.75;5.03;;;25.30;71.50;;;;;;4999592;28;20032;-53
2021/08/16 03:15:37;;;;;;;6.95;5.18;;;25.30;71.50;;;;;;4999702;28;20483;-50
2021/08/16 03:18:03;;;;;;;7.07;5.38;;;25.30;71.40;;;;;;4998763;28;20037;-49
2021/08/16 03:20:28;;;;;;;7.95;5.47;;;25.30;71.40;;;;;;4997705;28;20124;-51
2021/08/16 03:22:54;;;;;;;7.38;5.20;;;25.30;71.40;;;;;;4992115;28;20035;-50
2021/08/16 03:25:20;;;;;;;7.95;5.35;;;25.30;71.30;;;;;;4991752;28;20027;-51
2021/08/16 03:27:46;;;;;;;6.40;4.63;;;25.30;71.30;;;;;;4996591;28;20388;-52
2021/08/16 03:30:13;;;;;;;6.93;4.90;;;25.30;71.20;;;;;;5011139;28;20064;-52
2021/08/16 03:32:39;;;;;;;8.02;5.63;;;25.30;70.90;;;;;;5011103;28;20036;-57
2021/08/16 03:35:05;;;;;;;7.72;5.10;;;25.20;71.10;;;;;;5010314;28;20125;-52
2021/08/16 03:37:37;;;;;;;8.73;5.30;;;25.20;70.90;;;;;;4999139;28;20030;-52
2021/08/16 03:40:04;;;;;;;6.32;4.85;;;25.30;70.90;;;;;;4990957;28;20026;-52
2021/08/16 03:42:30;;;;;;;7.18;4.80;;;25.30;70.90;;;;;;4993970;28;20034;-50
2021/08/16 03:44:56;;;;;;;7.93;5.43;;;25.30;71.30;;;;;;4994803;28;20077;-50
2021/08/16 03:47:22;;;;;;;6.63;4.85;;;25.30;71.10;;;;;;4995649;28;20062;-50
2021/08/16 03:49:48;;;;;;;6.47;4.85;;;25.30;71.10;;;;;;4995578;28;20038;-52
2021/08/16 03:52:13;;;;;;;7.00;5.05;;;25.30;71.00;;;;;;4996267;28;20027;-51
2021/08/16 03:54:39;;;;;;;8.88;5.28;;;25.30;71.00;;;;;;4995382;28;20030;-51
2021/08/16 03:57:04;;;;;;;7.63;5.00;;;25.30;70.90;;;;;;5003324;28;20459;-51
2021/08/16 03:59:32;;;;;;;6.05;5.18;;;25.30;70.90;;;;;;5001673;28;20472;-52
2021/08/16 04:01:57;;;;;;;6.47;4.95;;;25.30;70.80;;;;;;5009975;28;20025;-50
2021/08/16 04:04:23;;;;;;;9.30;5.80;;;25.30;70.80;;;;;;5012581;28;20036;-50
2021/08/16 04:06:49;;;;;;;5.53;4.80;;;25.30;70.90;;;;;;5013051;28;20022;-53
2021/08/16 04:09:15;;;;;;;6.88;4.90;;;25.30;71.00;;;;;;5009863;28;20093;-49
2021/08/16 04:11:41;;;;;;;6.85;5.13;;;25.30;71.10;;;;;;4999075;28;20426;-55
2021/08/16 04:14:06;;;;;;;7.50;4.50;;;25.30;70.90;;;;;;5013426;28;20040;-49
2021/08/16 04:16:32;;;;;;;8.10;4.90;;;25.30;71.00;;;;;;5013676;28;20388;-51
2021/08/16 04:18:57;;;;;;;6.72;4.95;;;25.30;70.90;;;;;;5001359;28;20094;-50
2021/08/16 04:21:23;;;;;;;10.10;5.55;;;25.30;70.90;;;;;;4994790;28;20030;-50
2021/08/16 04:23:49;;;;;;;7.15;5.05;;;25.30;71.00;;;;;;4993641;28;20447;-48
2021/08/16 04:26:15;;;;;;;7.63;5.30;;;25.30;70.90;;;;;;4999082;28;20030;-52
2021/08/16 04:28:40;;;;;;;7.63;5.45;;;25.40;70.90;;;;;;5013331;28;20387;-56
2021/08/16 04:31:07;;;;;;;6.43;4.70;;;25.30;71.00;;;;;;5012619;28;20361;-50
2021/08/16 04:33:32;;;;;;;7.85;5.25;;;25.30;70.80;;;;;;4998220;28;20435;-50
2021/08/16 04:35:58;;;;;;;5.38;4.65;;;25.30;70.80;;;;;;4995373;28;20022;-54
2021/08/16 04:38:24;;;;;;;6.22;4.97;;;25.30;70.70;;;;;;5013827;28;20511;-49
2021/08/16 04:40:51;;;;;;;6.00;4.88;;;25.30;70.80;;;;;;5005367;28;20055;-49
2021/08/16 04:43:18;;;;;;;6.60;4.78;;;25.30;70.90;;;;;;4994341;28;20542;-51
2021/08/16 04:45:43;;;;;;;6.78;4.85;;;25.30;70.80;;;;;;5008715;28;20030;-55
2021/08/16 04:48:09;;;;;;;6.32;4.80;;;25.30;70.50;;;;;;5008642;28;20107;-49
2021/08/16 04:50:35;;;;;;;8.25;5.30;;;25.30;70.50;;;;;;5013347;28;20384;-50
2021/08/16 04:53:00;;;;;;;6.82;4.60;;;25.30;70.50;;;;;;5011635;28;20037;-52
2021/08/16 04:55:26;;;;;;;5.47;4.25;;;25.30;70.60;;;;;;5011225;28;20123;-51
2021/08/16 04:57:51;;;;;;;7.45;4.75;;;25.30;70.60;;;;;;5011766;28;20087;-49
2021/08/16 05:00:20;;;;;;;7.15;4.47;;;25.30;70.00;;;;;;5012913;28;20468;-53
2021/08/16 05:02:45;;;;;;;6.88;4.80;;;25.20;69.80;;;;;;4997751;28;20412;-56
2021/08/16 05:05:14;;;;;;;6.93;5.00;;;25.20;69.90;;;;;;4992764;28;20034;-50
2021/08/16 05:07:46;;;;;;;7.30;4.97;;;25.20;69.60;;;;;;4994015;28;20100;-49
2021/08/16 05:10:12;;;;;;;5.70;4.68;;;25.20;69.60;;;;;;5000624;28;20054;-52
2021/08/16 05:12:38;;;;;;;6.57;4.80;;;25.30;69.80;;;;;;5000935;28;20403;-49
2021/08/16 05:15:04;;;;;;;6.57;4.90;;;25.20;69.30;;;;;;5002198;28;20109;-49
2021/08/16 05:17:32;;;;;;;8.02;4.90;;;25.20;69.20;;;;;;5002230;28;20026;-49
2021/08/16 05:19:58;;;;;;;6.78;5.00;;;25.20;69.30;;;;;;5000718;28;20034;-55
2021/08/16 05:22:23;;;;;;;6.32;5.00;;;25.30;69.20;;;;;;4999886;28;20361;-51
2021/08/16 05:24:49;;;;;;;9.77;4.70;;;25.20;69.40;;;;;;5001961;28;20026;-53
2021/08/16 05:27:15;;;;;;;6.43;4.93;;;25.30;69.50;;;;;;5002620;28;20022;-49
2021/08/16 05:29:41;;;;;;;5.80;5.20;;;25.30;69.60;;;;;;4999541;28;20044;-52
2021/08/16 05:32:07;;;;;;;6.90;4.57;;;25.30;69.30;;;;;;5001793;28;20076;-55
2021/08/16 05:34:32;;;;;;;8.07;4.90;;;25.30;69.00;;;;;;5000466;28;20029;-50
2021/08/16 05:36:58;;;;;;;6.75;4.30;;;25.20;68.80;;;;;;4998526;28;20549;-49
2021/08/16 05:39:24;;;;;;;6.13;4.68;;;25.20;68.70;;;;;;5002398;28;20033;-52
2021/08/16 05:41:49;;;;;;;5.38;4.13;;;25.20;68.50;;;;;;5006330;28;20053;-51
2021/08/16 05:44:15;;;;;;;6.90;4.30;;;25.20;68.30;;;;;;5010106;28;20033;-54
2021/08/16 05:46:41;;;;;;;5.93;4.65;;;25.20;68.20;;;;;;5000970;28;20141;-48
2021/08/16 05:49:06;;;;;;;8.07;4.35;;;25.30;68.30;;;;;;4992464;28;20117;-50
2021/08/16 05:51:32;;;;;;;6.10;4.38;;;25.30;67.90;;;;;;4994098;28;20062;-50
2021/08/16 05:53:58;;;;;;;6.90;4.13;;;25.20;67.90;;;;;;4996543;28;20553;-51
2021/08/16 05:56:23;;;;;;;9.20;4.82;;;25.20;67.80;;;;;;4992806;28;20026;-50
2021/08/16 05:58:49;;;;;;;7.95;5.18;;;25.20;68.00;;;;;;4992323;28;20034;-51
2021/08/16 06:01:15;;;;;;;12.23;4.15;;;25.30;68.10;;;;;;4993917;28;20400;-55
2021/08/16 06:03:41;;;;;;;7.80;4.60;;;25.30;68.20;;;;;;4993752;28;20027;-52
2021/08/16 06:06:06;;;;;;;8.27;4.90;;;25.30;68.50;;;;;;4997166;28;20033;-52
2021/08/16 06:08:32;;;;;;;15.23;4.60;;;25.30;68.50;;;;;;4998046;28;20041;-53
2021/08/16 06:10:59;;;;;;;8.35;4.40;;;25.30;67.80;;;;;;5009738;28;20034;-52
2021/08/16 06:13:24;;;;;;;7.05;4.22;;;25.30;67.60;;;;;;5011588;28;20073;-56
2021/08/16 06:15:50;;;;;;;6.60;4.03;;;25.30;67.50;;;;;;5005427;28;20058;-56
2021/08/16 06:18:15;;;;;;;9.02;3.70;;;25.40;67.20;;;;;;4998475;28;20034;-52
2021/08/16 06:20:41;;;;;;;5.28;3.70;;;25.40;66.60;;;;;;4999764;28;20101;-53
2021/08/16 06:23:07;;;;;;;6.97;3.55;;;25.50;66.40;;;;;;5010898;28;20187;-50
2021/08/16 06:25:32;;;;;;;7.03;3.78;;;25.50;66.10;;;;;;5010207;28;20515;-53
2021/08/16 06:27:58;;;;;;;7.85;3.65;;;25.50;66.10;;;;;;5005224;28;20480;-51
2021/08/16 06:30:24;;;;;;;4.30;3.40;;;25.60;65.60;;;;;;4998477;28;20384;-53
2021/08/16 06:32:49;;;;;;;5.40;3.33;;;25.70;64.90;;;;;;4993694;28;20026;-56
2021/08/16 06:35:17;;;;;;;5.15;3.63;;;25.70;64.90;;;;;;4996750;28;20030;-53
2021/08/16 06:37:45;;;;;;;5.53;3.42;;;25.70;64.80;;;;;;4992019;28;20093;-53
2021/08/16 06:40:11;;;;;;;5.55;3.70;;;25.80;64.20;;;;;;4991644;28;20034;-49
2021/08/16 06:42:37;;;;;;;6.30;3.33;;;25.70;64.10;;;;;;5002455;28;20105;-55
2021/08/16 06:45:04;;;;;;;7.13;3.50;;;25.70;64.70;;;;;;5001117;28;20038;-54
2021/08/16 06:47:29;;;;;;;9.57;3.50;;;25.70;64.60;;;;;;5010564;28;20033;-51
2021/08/16 06:49:55;;;;;;;6.47;3.42;;;25.80;64.00;;;;;;5010911;28;20026;-49
2021/08/16 06:52:21;;;;;;;5.05;3.20;;;25.70;64.20;;;;;;5004550;28;20038;-52
2021/08/16 06:54:46;;;;;;;7.32;3.55;;;25.80;64.20;;;;;;4991674;28;20093;-62
2021/08/16 06:57:12;;;;;;;6.60;3.97;;;25.80;64.40;;;;;;4991257;28;20038;-53
2021/08/16 06:59:38;;;;;;;6.90;3.50;;;25.80;63.80;;;;;;4992244;28;20038;-50
2021/08/16 07:02:03;;;;;;;6.80;3.75;;;25.80;63.70;;;;;;4991114;28;20047;-57
2021/08/16 07:04:29;;;;;;;5.60;2.95;;;25.90;64.00;;;;;;5001135;28;20029;-54
2021/08/16 07:06:55;;;;;;;4.97;3.10;;;25.90;64.00;;;;;;4991363;28;20034;-54
2021/08/16 07:09:21;;;;;;;4.80;2.95;;;26.00;63.90;;;;;;4997465;28;20105;-51
2021/08/16 07:11:47;;;;;;;6.47;3.65;;;25.90;63.80;;;;;;5003286;28;20074;-63
2021/08/16 07:14:13;;;;;;;4.95;3.33;;;25.90;63.70;;;;;;4995256;28;20443;-49
2021/08/16 07:16:39;;;;;;;6.97;2.78;;;25.90;64.00;;;;;;4991724;28;20030;-54
2021/08/16 07:19:04;;;;;;;11.70;3.53;;;25.80;63.40;;;;;;5010363;28;20781;-53
2021/08/16 07:21:30;;;;;;;6.35;3.30;;;25.90;63.70;;;;;;5013689;28;20396;-52
2021/08/16 07:23:56;;;;;;;4.45;3.00;;;26.00;63.80;;;;;;5014178;28;20026;-51
2021/08/16 07:26:22;;;;;;;8.48;3.40;;;26.00;63.60;;;;;;5009078;28;20081;-53
2021/08/16 07:28:48;;;;;;;8.32;3.00;;;26.00;63.00;;;;;;5013472;28;20109;-58
2021/08/16 07:31:14;;;;;;;4.43;3.00;;;26.00;63.40;;;;;;5003969;28;20049;-49
2021/08/16 07:33:40;;;;;;;5.88;2.70;;;25.90;62.90;;;;;;5014720;28;20068;-50
2021/08/16 07:36:06;;;;;;;7.57;3.13;;;26.00;62.70;;;;;;5013469;28;20117;-52
2021/08/16 07:38:32;;;;;;;7.32;3.13;;;26.00;63.30;;;;;;5014066;28;20534;-49
2021/08/16 07:40:57;;;;;;;4.68;3.03;;;25.90;62.70;;;;;;5009117;28;20058;-52
2021/08/16 07:43:23;;;;;;;3.78;2.88;;;26.00;63.00;;;;;;4995538;28;20082;-50
2021/08/16 07:45:49;;;;;;;4.57;2.65;;;25.90;62.60;;;;;;5001857;28;20102;-56
2021/08/16 07:48:16;;;;;;;4.63;2.80;;;26.00;62.50;;;;;;4995151;28;20172;-51
2021/08/16 07:50:42;;;;;;;6.65;3.00;;;25.90;62.20;;;;;;5007542;28;20018;-50
2021/08/16 07:53:08;;;;;;;8.02;3.05;;;26.00;62.00;;;;;;5013535;28;20111;-55
2021/08/16 07:55:34;;;;;;;6.05;2.83;;;26.00;62.40;;;;;;5002935;28;20057;-54
2021/08/16 07:57:59;;;;;;;4.18;2.70;;;26.00;62.00;;;;;;4994522;28;20045;-55
2021/08/16 08:00:25;;;;;;;5.95;3.33;;;26.00;61.80;;;;;;4997345;28;20361;-52
2021/08/16 08:02:51;;;;;;;4.85;2.88;;;26.00;61.70;;;;;;5013306;28;20030;-57
2021/08/16 08:05:19;;;;;;;5.25;2.63;;;25.90;61.50;;;;;;5013601;28;20096;-52
2021/08/16 08:07:45;;;;;;;4.50;2.80;;;25.90;61.30;;;;;;5014194;28;20053;-52
2021/08/16 08:10:12;;;;;;;6.03;2.78;;;25.80;61.20;;;;;;5003841;28;20135;-51
2021/08/16 08:12:38;;;;;;;4.10;2.50;;;25.90;61.30;;;;;;4994805;28;20026;-51
2021/08/16 08:15:05;;;;;;;5.10;2.85;;;25.90;61.10;;;;;;5005276;28;20022;-49
2021/08/16 08:17:31;;;;;;;6.13;2.53;;;26.00;60.90;;;;;;5003318;28;20030;-52
2021/08/16 08:19:58;;;;;;;4.53;2.65;;;26.00;60.70;;;;;;4995112;28;20084;-51
2021/08/16 08:22:25;;;;;;;4.85;2.60;;;26.00;60.40;;;;;;4994793;28;20464;-48
2021/08/16 08:24:51;;;;;;;4.45;2.30;;;26.00;60.40;;;;;;5001744;28;20464;-58
2021/08/16 08:27:18;;;;;;;5.95;2.80;;;26.00;60.00;;;;;;5013713;28;20137;-56
2021/08/16 08:29:44;;;;;;;3.88;2.53;;;26.10;59.80;;;;;;5010995;28;20040;-51
2021/08/16 08:32:10;;;;;;;4.72;2.47;;;26.10;59.20;;;;;;5012970;28;20026;-56
2021/08/16 08:34:36;;;;;;;6.72;3.05;;;26.10;59.10;;;;;;5002884;28;20031;-58
2021/08/16 08:37:03;;;;;;;5.65;2.63;;;26.10;59.10;;;;;;4998646;28;20080;-55
2021/08/16 08:39:29;;;;;;;5.30;2.60;;;26.00;59.60;;;;;;5003921;28;20041;-57
2021/08/16 08:41:58;;;;;;;5.60;2.75;;;26.10;59.10;;;;;;4993727;28;20054;-54
2021/08/16 08:44:24;;;;;;;4.88;2.47;;;26.10;59.10;;;;;;5012470;28;20376;-58
2021/08/16 08:46:52;;;;;;;5.28;2.72;;;26.20;58.90;;;;;;4993818;28;20026;-59
2021/08/16 08:49:17;;;;;;;3.15;2.38;;;26.20;59.10;;;;;;4993810;28;20045;-52
2021/08/16 08:51:43;;;;;;;4.68;2.55;;;26.10;59.00;;;;;;4994329;28;20038;-54
2021/08/16 08:54:09;;;;;;;3.85;2.30;;;26.00;58.90;;;;;;5006532;28;20033;-51
2021/08/16 08:56:35;;;;;;;4.05;2.92;;;26.00;59.00;;;;;;5012397;28;20037;-49
2021/08/16 08:59:01;;;;;;;5.28;2.90;;;26.00;59.00;;;;;;4994231;28;20046;-53
2021/08/16 09:01:27;;;;;;;4.75;2.55;;;26.10;58.60;;;;;;4993730;28;20031;-51
2021/08/16 09:03:55;;;;;;;3.67;2.50;;;26.00;58.70;;;;;;4993255;28;20030;-59
2021/08/16 09:06:31;;;;;;;4.38;2.63;;;26.10;58.50;;;;;;4993945;28;20368;-54
2021/08/16 09:08:58;;;;;;;5.57;3.15;;;26.00;58.40;;;;;;4995963;28;20072;-56
2021/08/16 09:11:25;;;;;;;3.72;2.55;;;26.00;58.60;;;;;;5001048;28;20069;-51
2021/08/16 09:13:57;;;;;;;5.28;2.83;;;26.00;58.40;;;;;;5003884;28;20476;-56
2021/08/16 09:16:24;;;;;;;9.45;2.55;;;26.00;58.30;;;;;;4997899;28;20493;-48
2021/08/16 09:18:51;;;;;;;4.55;3.15;;;26.00;58.50;;;;;;5006975;28;20056;-51
2021/08/16 09:21:33;;;;;;;4.45;2.78;;;25.90;58.10;;;;;;5002605;28;20034;-52
2021/08/16 09:24:00;;;;;;;4.60;3.00;;;25.80;58.20;;;;;;4992965;28;20031;-53
2021/08/16 09:26:31;;;;;;;4.85;2.70;;;25.90;58.00;;;;;;4994629;28;20031;-52
2021/08/16 09:29:10;;;;;;;;;;;25.90;57.80;;;;;;4993585;28;20045;-53
2021/08/16 09:31:35;;;;;;;4.97;3.00;;;26.00;58.40;;;;;;4993489;28;20016;-54
2021/08/16 09:34:01;;;;;;;5.97;3.53;;;26.00;57.50;;;;;;4992401;28;20555;-54
2021/08/16 09:36:37;;;;;;;5.85;3.03;;;26.00;57.30;;;;;;5007205;28;20058;-50
2021/08/16 09:39:22;;;;;;;4.90;3.30;;;26.10;57.00;;;;;;5011686;28;20399;-50
2021/08/16 09:41:55;;;;;;;6.30;3.08;;;26.20;56.90;;;;;;5011617;28;20130;-53
2021/08/16 09:44:21;;;;;;;5.90;3.03;;;26.10;56.90;;;;;;5009016;28;20109;-51
2021/08/16 09:47:01;;;;;;;6.00;3.83;;;26.10;56.80;;;;;;4998875;28;20101;-53
2021/08/16 09:49:27;;;;;;;6.65;2.85;;;26.00;57.00;;;;;;5010064;28;20034;-53
2021/08/16 09:52:10;;;;;;;5.47;3.20;;;26.00;56.50;;;;;;4992582;28;20031;-55
2021/08/16 09:54:37;;;;;;;6.60;3.47;;;26.00;56.80;;;;;;4993058;28;20097;-49
2021/08/16 09:57:05;;;;;;;7.32;3.30;;;26.00;56.70;;;;;;4993340;28;20034;-54
2021/08/16 09:59:36;;;;;;;6.45;3.22;;;26.10;56.60;;;;;;4992957;28;20062;-56
2021/08/16 10:02:02;;;;;;;5.72;3.30;;;26.00;56.70;;;;;;4992310;28;20429;-48
2021/08/16 10:04:32;;;;;;;5.85;2.97;;;26.10;57.30;;;;;;4997568;28;20112;-53
2021/08/16 10:06:59;;;;;;;6.57;3.03;;;26.00;56.90;;;;;;5010757;28;20060;-54
2021/08/16 10:09:27;;;;;;;6.72;2.95;;;26.10;57.00;;;;;;5013974;28;20029;-54
2021/08/16 10:11:53;;;;;;;6.07;3.28;;;26.20;57.60;;;;;;4995431;28;20030;-50
2021/08/16 10:14:24;;;;;;;5.32;2.88;;;26.20;57.60;;;;;;4991246;28;20085;-54
2021/08/16 10:16:52;;;;;;;9.68;3.10;;;26.10;56.90;;;;;;4993388;28;20105;-54
2021/08/16 10:19:41;;;;;;;8.02;2.88;;;26.20;57.10;;;;;;4999353;28;20038;-54
2021/08/16 10:22:08;;;;;;;4.97;3.03;;;26.30;57.30;;;;;;5004085;28;20033;-49
2021/08/16 10:24:33;;;;;;;6.70;3.00;;;26.30;57.10;;;;;;5010453;28;20479;-53
2021/08/16 10:27:05;;;;;;;6.13;3.17;;;26.40;57.20;;;;;;5010261;28;20030;-50
2021/08/16 10:29:32;;;;;;;9.18;2.90;;;26.30;57.00;;;;;;5011606;28;20029;-52
2021/08/16 10:32:00;;;;;;;7.35;3.20;;;26.30;57.20;;;;;;4993737;28;20026;-57
2021/08/16 10:34:46;;;;;;;7.72;2.78;;;26.30;57.70;;;;;;5003846;28;20068;-49
2021/08/16 10:37:15;;;;;;;9.15;3.80;;;26.30;57.10;;;;;;5010332;28;20057;-48
2021/08/16 10:39:50;;;;;;;8.75;4.00;;;26.20;57.90;;;;;;5011247;28;20041;-49
2021/08/16 10:42:18;;;;;;;11.00;3.95;;;26.20;57.30;;;;;;5010037;28;20042;-49
2021/08/16 10:44:50;;;;;;;14.95;4.10;;;26.10;56.90;;;;;;5004933;28;20030;-53
2021/08/16 10:47:28;;;;;;;16.45;3.97;;;26.10;57.20;;;;;;4992448;28;20025;-48
2021/08/16 10:50:10;;;;;;;11.32;3.20;;;26.00;57.00;;;;;;4992500;28;20041;-55
2021/08/16 10:52:38;;;;;;;11.80;3.28;;;26.00;56.60;;;;;;5005330;28;20368;-50
2021/08/16 10:55:13;;;;;;;13.75;3.75;;;26.00;56.60;;;;;;5012981;28;20049;-49
2021/08/16 10:57:40;;;;;;;11.60;3.25;;;26.00;56.50;;;;;;5014102;28;20037;-48
2021/08/16 11:00:07;;;;;;;8.27;3.08;;;26.00;56.30;;;;;;5014100;28;20037;-53
2021/08/16 11:02:33;;;;;;;10.65;3.47;;;25.90;56.60;;;;;;5007233;28;20060;-53
2021/08/16 11:04:59;;;;;;;7.82;2.97;;;25.90;56.70;;;;;;4996519;28;20034;-55
2021/08/16 11:07:25;;;;;;;9.35;3.95;;;25.90;56.50;;;;;;4995800;28;20093;-48
2021/08/16 11:10:09;;;;;;;6.47;3.10;;;25.90;56.30;;;;;;5005846;28;20063;-50
2021/08/16 11:12:42;;;;;;;8.40;3.97;;;25.90;55.90;;;;;;5005016;28;20045;-50
2021/08/16 11:15:13;;;;;;;6.07;2.95;;;25.80;56.00;;;;;;5000443;28;20046;-51
2021/08/16 11:17:39;;;;;;;10.80;3.28;;;25.80;55.70;;;;;;4997091;28;20041;-48
2021/08/16 11:20:07;;;;;;;7.65;2.83;;;25.80;56.00;;;;;;4995242;28;20411;-50
2021/08/16 11:22:33;;;;;;;7.90;3.35;;;25.80;55.80;;;;;;5011182;28;20088;-52
2021/08/16 11:25:06;;;;;;;7.15;3.05;;;25.80;55.70;;;;;;5014040;28;20030;-58
2021/08/16 11:27:32;;;;;;;7.55;3.72;;;25.70;55.70;;;;;;5013585;28;20030;-52
2021/08/16 11:30:04;;;;;;;5.30;2.58;;;25.80;55.80;;;;;;5012744;28;20432;-57
2021/08/16 11:32:32;;;;;;;8.35;2.60;;;25.80;55.80;;;;;;5014241;28;20032;-50
2021/08/16 11:34:58;;;;;;;8.35;2.97;;;25.80;55.80;;;;;;5004958;28;20117;-58
2021/08/16 11:37:29;;;;;;;5.30;2.47;;;25.80;55.80;;;;;;4994866;28;20030;-50
2021/08/16 11:39:57;;;;;;;7.75;2.67;;;25.80;55.80;;;;;;4995345;28;20049;-49
2021/08/16 11:42:24;;;;;;;5.55;2.78;;;25.80;56.30;;;;;;4995522;28;20042;-47
2021/08/16 11:45:02;;;;;;;4.80;2.60;;;25.80;55.80;;;;;;5010848;28;20423;-53
2021/08/16 11:47:54;;;;;;;4.40;2.85;;;25.70;55.90;;;;;;4995101;28;20042;-52
2021/08/16 11:50:23;;;;;;;;;;;25.80;55.60;;;;;;4995494;28;20584;-50
2021/08/16 11:52:50;;;;;;;3.85;2.28;;;25.80;55.60;;;;;;4994746;28;19910;-50
2021/08/16 11:55:23;;;;;;;5.63;2.92;;;25.70;55.20;;;;;;5005574;28;20029;-50
2021/08/16 11:57:55;;;;;;;6.38;3.03;;;25.70;55.60;;;;;;5012489;28;20076;-47
2021/08/16 12:00:40;;;;;;;4.82;2.30;;;25.70;55.30;;;;;;5001714;28;20172;-52
2021/08/16 12:03:07;;;;;;;6.00;2.95;;;25.70;55.50;;;;;;5000510;28;20034;-49
2021/08/16 12:05:33;;;;;;;5.10;2.40;;;25.70;55.60;;;;;;5012980;28;20033;-50
2021/08/16 12:07:58;;;;;;;6.60;2.80;;;25.70;55.10;;;;;;5013361;28;20038;-57
2021/08/16 12:10:27;;;;;;;4.55;2.60;;;25.70;55.30;;;;;;5001527;28;20042;-55
2021/08/16 12:13:00;;;;;;;7.35;2.60;;;25.70;55.20;;;;;;4997478;28;20036;-56
2021/08/16 12:15:26;;;;;;;5.70;2.30;;;25.60;54.90;;;;;;5013419;28;20100;-58
2021/08/16 12:18:04;;;;;;;7.38;2.55;;;25.50;53.30;;;;;;5013815;28;20030;-56
2021/08/16 12:20:42;;;;;;;5.88;3.50;;;25.50;51.90;;;;;;5013600;28;20069;-55
2021/08/16 12:23:08;;;;;;;6.15;2.92;;;25.30;51.60;;;;;;5011520;28;20053;-57
2021/08/16 12:25:45;;;;;;;5.07;2.70;;;25.40;51.80;;;;;;5007692;28;20030;-57
2021/08/16 12:28:10;;;;;;;4.32;2.53;;;25.20;51.30;;;;;;4994757;28;20089;-58
2021/08/16 12:30:36;;;;;;;6.53;3.00;;;25.20;50.70;;;;;;5000434;28;20030;-57
2021/08/16 12:33:18;;;;;;;5.45;2.80;;;25.20;51.00;;;;;;4995344;28;20072;-63
2021/08/16 12:35:59;;;;;;;5.20;2.58;;;25.20;50.70;;;;;;4994713;28;20080;-55
2021/08/16 12:38:29;;;;;;;6.97;2.60;;;25.20;50.50;;;;;;4994075;28;20038;-57
2021/08/16 12:41:06;;;;;;;3.45;2.53;;;25.20;49.60;;;;;;5005925;28;20064;-57
2021/08/16 12:43:40;;;;;;;6.53;3.22;;;25.00;49.60;;;;;;5012154;28;20076;-57
2021/08/16 12:46:07;;;;;;;5.20;2.80;;;25.00;50.10;;;;;;5012414;28;20034;-56
2021/08/16 12:48:44;;;;;;;5.82;2.67;;;25.10;50.10;;;;;;5012863;28;20423;-57